createdAt,value
2023-04-23T00:00:13.376Z,13.57
2023-04-23T00:03:10.339Z,13.65
2023-04-23T00:05:59.732Z,13.85
2023-04-23T00:08:49.673Z,13.93
2023-04-23T00:11:39.563Z,13.18
2023-04-23T00:14:28.999Z,13.68
2023-04-23T00:17:19.628Z,12.98
2023-04-23T00:20:10.438Z,13.38
2023-04-23T00:22:58.833Z,12.82
2023-04-23T00:25:47.149Z,13.38
2023-04-23T00:28:35.564Z,13.23
2023-04-23T00:31:24.276Z,12.68
2023-04-23T00:34:14.074Z,13.73
2023-04-23T00:37:05.860Z,12.73
2023-04-23T00:39:54.249Z,12.88
2023-04-23T00:42:44.559Z,13.25
2023-04-23T00:45:33.069Z,14.15
2023-04-23T00:48:22.299Z,13.68
2023-04-23T00:51:12.997Z,13.32
2023-04-23T00:54:01.697Z,13.00
2023-04-23T00:56:50.604Z,12.45
2023-04-23T00:59:39.053Z,13.18
2023-04-23T01:02:30.432Z,12.93
2023-04-23T01:05:20.673Z,13.50
2023-04-23T01:08:12.746Z,12.60
2023-04-23T01:11:04.055Z,13.57
2023-04-23T01:13:52.716Z,11.73
2023-04-23T01:16:41.205Z,13.15
2023-04-23T01:19:29.996Z,12.82
2023-04-23T01:22:19.826Z,14.00
2023-04-23T01:25:10.864Z,14.00
2023-04-23T01:27:59.741Z,12.40
2023-04-23T01:30:49.093Z,13.40
2023-04-23T01:33:38.048Z,12.75
2023-04-23T01:36:27.038Z,13.35
2023-04-23T01:39:17.080Z,13.18
2023-04-23T01:42:07.271Z,14.02
2023-04-23T01:44:55.962Z,14.27
2023-04-23T01:47:44.812Z,13.93
2023-04-23T01:50:33.733Z,14.18
2023-04-23T01:53:22.131Z,14.30
2023-04-23T01:56:13.472Z,15.15
2023-04-23T01:59:02.483Z,15.85
2023-04-23T02:01:51.496Z,14.73
2023-04-23T02:04:42.318Z,15.65
2023-04-23T02:07:31.467Z,14.77
2023-04-23T02:10:20.534Z,15.75
2023-04-23T02:13:10.284Z,13.98
2023-04-23T02:15:58.766Z,14.23
2023-04-23T02:18:47.161Z,15.18
2023-04-23T02:21:35.625Z,13.68
2023-04-23T02:24:23.999Z,14.25
2023-04-23T02:27:12.350Z,14.40
2023-04-23T02:30:02.174Z,14.68
2023-04-23T02:32:50.590Z,15.18
2023-04-23T02:35:38.931Z,15.20
2023-04-23T02:38:27.339Z,14.48
2023-04-23T02:41:15.782Z,13.80
2023-04-23T02:44:04.177Z,14.20
2023-04-23T02:46:54.236Z,15.02
2023-04-23T02:49:43.816Z,14.73
2023-04-23T02:52:32.276Z,13.32
2023-04-23T02:55:20.804Z,13.60
2023-04-23T02:58:09.329Z,12.98
2023-04-23T03:01:00.683Z,13.32
2023-04-23T03:03:50.818Z,13.43
2023-04-23T03:06:39.505Z,12.68
2023-04-23T03:09:27.887Z,10.77
2023-04-23T03:12:16.617Z,13.32
2023-04-23T03:15:05.911Z,12.98
2023-04-23T03:17:57.101Z,13.43
2023-04-23T03:20:47.062Z,14.88
2023-04-23T03:23:35.663Z,13.35
2023-04-23T03:26:24.210Z,13.85
2023-04-23T03:29:12.994Z,12.85
2023-04-23T03:32:01.521Z,12.23
2023-04-23T03:34:49.908Z,13.13
2023-04-23T03:37:39.714Z,13.05
2023-04-23T03:40:28.614Z,13.30
2023-04-23T03:43:20.678Z,14.52
2023-04-23T03:46:24.214Z,14.57
2023-04-23T03:49:13.772Z,14.15
2023-04-23T03:52:02.194Z,14.63
2023-04-23T03:54:53.742Z,13.95
2023-04-23T03:57:47.462Z,13.43
2023-04-23T04:00:46.075Z,12.88
2023-04-23T04:03:34.553Z,12.25
2023-04-23T04:06:22.967Z,13.35
2023-04-23T04:09:11.360Z,13.35
2023-04-23T04:12:01.604Z,12.90
2023-04-23T04:14:50.172Z,13.07
2023-04-23T04:17:38.542Z,13.63
2023-04-23T04:20:28.929Z,15.50
2023-04-23T04:23:17.296Z,15.02
2023-04-23T04:26:07.909Z,15.80
2023-04-23T04:28:58.269Z,15.23
2023-04-23T04:31:46.762Z,13.93
2023-04-23T04:34:36.087Z,14.25
2023-04-23T04:37:25.635Z,15.00
2023-04-23T04:40:15.188Z,14.60
2023-04-23T04:43:05.240Z,13.98
2023-04-23T04:45:55.033Z,13.65
2023-04-23T04:48:43.504Z,15.05
2023-04-23T04:51:32.119Z,14.10
2023-04-23T04:54:20.626Z,14.98
2023-04-23T04:57:08.913Z,14.50
2023-04-23T04:59:57.367Z,15.05
2023-04-23T05:02:48.457Z,14.77
2023-04-23T05:05:37.039Z,13.80
2023-04-23T05:08:25.477Z,12.68
2023-04-23T05:11:14.092Z,13.98
2023-04-23T05:14:04.328Z,14.82
2023-04-23T05:16:52.897Z,12.80
2023-04-23T05:19:42.773Z,13.15
2023-04-23T05:22:31.411Z,14.35
2023-04-23T05:25:19.965Z,13.40
2023-04-23T05:28:08.670Z,13.35
2023-04-23T05:30:58.442Z,12.70
2023-04-23T05:33:50.494Z,12.73
2023-04-23T05:36:41.234Z,13.77
2023-04-23T05:39:29.768Z,13.05
2023-04-23T05:42:18.394Z,13.18
2023-04-23T05:45:09.078Z,12.25
2023-04-23T05:47:57.875Z,12.30
2023-04-23T05:50:46.428Z,12.00
2023-04-23T05:53:36.338Z,12.25
2023-04-23T05:56:24.807Z,11.48
2023-04-23T05:59:13.347Z,11.02
2023-04-23T06:02:01.954Z,11.60
2023-04-23T06:04:50.538Z,10.23
2023-04-23T06:07:39.041Z,11.07
2023-04-23T06:10:28.870Z,11.32
2023-04-23T06:13:17.650Z,10.48
2023-04-23T06:16:06.437Z,10.40
2023-04-23T06:18:56.133Z,10.15
2023-04-23T06:21:44.585Z,9.90
2023-04-23T06:24:33.604Z,9.25
2023-04-23T06:27:23.408Z,8.68
2023-04-23T06:30:15.066Z,8.57
2023-04-23T06:33:03.860Z,8.80
2023-04-23T06:35:52.491Z,9.60
2023-04-23T06:38:41.092Z,9.75
2023-04-23T06:41:31.124Z,8.85
2023-04-23T06:44:41.144Z,9.52
2023-04-23T06:47:29.786Z,9.52
2023-04-23T06:50:18.388Z,9.43
2023-04-23T06:53:07.239Z,8.48
2023-04-23T06:55:55.656Z,8.63
2023-04-23T06:58:44.318Z,8.00
2023-04-23T07:01:40.145Z,9.10
2023-04-23T07:04:28.906Z,7.90
2023-04-23T07:07:17.493Z,9.15
2023-04-23T07:10:07.230Z,9.50
2023-04-23T07:12:56.000Z,7.53
2023-04-23T07:15:44.791Z,8.45
2023-04-23T07:18:34.665Z,8.25
2023-04-23T07:21:23.128Z,8.85
2023-04-23T07:24:11.607Z,8.07
2023-04-23T07:27:00.185Z,8.10
2023-04-23T07:29:48.650Z,9.00
2023-04-23T07:32:37.184Z,7.70
2023-04-23T07:35:27.714Z,8.52
2023-04-23T07:38:16.181Z,8.25
2023-04-23T07:41:04.681Z,8.35
2023-04-23T07:43:53.332Z,8.38
2023-04-23T07:46:41.826Z,8.68
2023-04-23T07:49:31.055Z,8.57
2023-04-23T07:52:20.991Z,8.48
2023-04-23T07:55:10.815Z,7.32
2023-04-23T07:58:02.220Z,6.55
2023-04-23T08:00:50.740Z,5.47
2023-04-23T08:03:39.293Z,6.07
2023-04-23T08:06:29.933Z,6.22
2023-04-23T08:09:20.140Z,5.60
2023-04-23T08:12:08.539Z,5.35
2023-04-23T08:14:57.158Z,5.30
2023-04-23T08:17:52.106Z,6.15
2023-04-23T08:20:40.686Z,5.60
2023-04-23T08:23:29.438Z,4.55
2023-04-23T08:26:19.472Z,5.47
2023-04-23T08:29:09.630Z,5.07
2023-04-23T08:31:59.993Z,4.88
2023-04-23T08:34:48.702Z,4.78
2023-04-23T08:37:38.849Z,5.03
2023-04-23T08:40:32.223Z,4.57
2023-04-23T08:43:22.165Z,5.03
2023-04-23T08:46:16.053Z,4.55
2023-04-23T08:49:06.118Z,4.22
2023-04-23T08:51:57.697Z,4.68
2023-04-23T08:54:53.297Z,4.80
2023-04-23T08:57:42.659Z,4.07
2023-04-23T09:00:33.257Z,3.90
2023-04-23T09:03:24.395Z,3.88
2023-04-23T09:06:15.645Z,3.50
2023-04-23T09:09:07.284Z,3.45
2023-04-23T09:11:57.092Z,4.20
2023-04-23T09:14:46.007Z,3.00
2023-04-23T09:17:40.664Z,3.20
2023-04-23T09:20:29.492Z,4.35
2023-04-23T09:23:18.146Z,3.90
2023-04-23T09:26:08.591Z,3.40
2023-04-23T09:28:57.055Z,3.60
2023-04-23T09:31:47.642Z,3.50
2023-04-23T09:34:38.512Z,3.00
2023-04-23T09:37:27.677Z,3.30
2023-04-23T09:40:17.731Z,3.38
2023-04-23T09:43:07.277Z,3.65
2023-04-23T09:45:55.805Z,2.90
2023-04-23T09:48:44.586Z,2.80
2023-04-23T09:51:36.525Z,2.90
2023-04-23T09:54:26.404Z,3.00
2023-04-23T09:57:15.095Z,2.90
2023-04-23T10:00:17.298Z,2.45
2023-04-23T10:03:08.632Z,2.88
2023-04-23T10:06:01.687Z,2.33
2023-04-23T10:08:52.587Z,2.53
2023-04-23T10:11:43.264Z,2.55
2023-04-23T10:14:32.206Z,2.35
2023-04-23T10:17:20.938Z,2.35
2023-04-23T10:20:12.057Z,1.90
2023-04-23T10:23:14.552Z,1.77
2023-04-23T10:26:07.048Z,1.55
2023-04-23T10:28:58.056Z,2.03
2023-04-23T10:31:48.342Z,1.77
2023-04-23T10:34:36.977Z,1.98
2023-04-23T10:37:26.566Z,2.00
2023-04-23T10:40:21.925Z,2.13
2023-04-23T10:43:11.863Z,2.00
2023-04-23T10:46:02.292Z,1.88
2023-04-23T11:10:49.119Z,2.40
2023-04-23T12:20:12.049Z,1.70
2023-04-23T12:23:06.527Z,1.60
2023-04-23T12:25:55.784Z,2.17
2023-04-23T12:28:48.717Z,1.95
2023-04-23T12:31:39.739Z,1.75
2023-04-23T12:34:28.293Z,1.85
2023-04-23T12:37:17.872Z,1.80
2023-04-23T12:40:08.145Z,2.05
2023-04-23T12:42:56.611Z,1.30
2023-04-23T12:45:52.394Z,1.20
2023-04-23T12:48:42.423Z,1.30
2023-04-23T12:51:31.035Z,1.08
2023-04-23T12:54:22.295Z,1.42
2023-04-23T12:57:16.552Z,1.10
2023-04-23T13:00:10.393Z,1.05
2023-04-23T13:03:20.425Z,1.10
2023-04-23T13:06:10.336Z,1.00
2023-04-23T13:09:17.484Z,1.05
2023-04-23T13:12:13.166Z,1.10
2023-04-23T13:15:13.180Z,1.05
2023-04-23T13:18:11.019Z,0.93
2023-04-23T13:21:09.903Z,1.10
2023-04-23T13:24:12.392Z,1.00
2023-04-23T13:27:07.970Z,0.77
2023-04-23T13:30:11.840Z,1.15
2023-04-23T13:33:04.464Z,0.90
2023-04-23T13:36:02.589Z,1.00
2023-04-23T13:38:55.752Z,1.08
2023-04-23T13:42:08.803Z,1.10
2023-04-23T13:45:04.754Z,1.08
2023-04-23T13:47:58.269Z,1.30
2023-04-23T13:50:57.175Z,1.15
2023-04-23T13:54:00.774Z,1.30
2023-04-23T13:56:54.845Z,1.20
2023-04-23T13:59:58.672Z,1.48
2023-04-23T14:02:51.033Z,1.50
2023-04-23T14:08:53.721Z,1.42
2023-04-23T14:11:49.818Z,1.17
2023-04-23T14:14:50.131Z,1.30
2023-04-23T14:17:45.958Z,1.33
2023-04-23T14:20:41.459Z,1.40
2023-04-23T14:23:58.915Z,1.48
2023-04-23T14:26:51.556Z,1.33
2023-04-23T14:29:51.847Z,1.42
2023-04-23T14:32:40.356Z,1.60
2023-04-23T14:35:42.113Z,1.48
2023-04-23T14:38:31.880Z,1.15
2023-04-23T14:41:20.509Z,1.23
2023-04-23T14:44:09.100Z,1.10
2023-04-23T14:46:59.949Z,1.35
2023-04-23T14:54:23.076Z,1.20
2023-04-23T15:02:36.976Z,1.40
2023-04-23T15:09:50.859Z,1.35
2023-04-23T15:12:56.780Z,1.48
2023-04-23T15:15:53.232Z,1.30
2023-04-23T15:18:43.099Z,1.45
2023-04-23T15:21:31.650Z,1.50
2023-04-23T15:24:20.356Z,0.90
2023-04-23T15:27:11.631Z,1.00
2023-04-23T15:30:00.124Z,1.02
2023-04-23T15:32:49.174Z,0.93
2023-04-23T15:35:39.618Z,1.00
2023-04-23T15:38:29.072Z,0.85
2023-04-23T15:41:17.992Z,1.00
2023-04-23T15:44:12.412Z,0.80
2023-04-23T15:47:03.341Z,0.85
2023-04-23T15:49:54.747Z,0.93
2023-04-23T15:52:45.878Z,0.70
2023-04-23T15:55:35.021Z,1.00
2023-04-23T15:58:23.678Z,0.80
2023-04-23T16:01:12.279Z,0.77
2023-04-23T16:04:10.213Z,0.85
2023-04-23T16:06:59.160Z,0.70
2023-04-23T16:09:49.554Z,0.95
2023-04-23T16:12:38.412Z,0.80
2023-04-23T16:15:27.018Z,0.80
2023-04-23T16:18:16.076Z,0.70
2023-04-23T16:21:06.135Z,0.60
2023-04-23T16:23:54.791Z,0.80
2023-04-23T16:26:44.977Z,1.05
2023-04-23T16:29:33.720Z,1.17
2023-04-23T16:32:28.027Z,0.80
2023-04-23T16:35:17.018Z,0.40
2023-04-23T16:38:05.740Z,0.93
2023-04-23T16:40:54.325Z,0.85
2023-04-23T16:43:44.316Z,0.63
2023-04-23T16:46:33.111Z,1.00
2023-04-23T16:49:21.908Z,0.93
2023-04-23T16:52:10.447Z,0.85
2023-04-23T16:54:58.994Z,0.90
2023-04-23T16:58:19.866Z,1.15
2023-04-23T17:01:12.119Z,1.00
2023-04-23T17:04:00.839Z,1.10
2023-04-23T17:07:40.766Z,1.10
2023-04-23T17:10:29.329Z,1.13
2023-04-23T17:13:17.828Z,1.00
2023-04-23T17:16:06.636Z,1.05
2023-04-23T17:18:57.637Z,1.10
2023-04-23T17:21:46.215Z,1.10
2023-04-23T17:24:40.089Z,1.20
2023-04-23T17:27:28.820Z,0.98
2023-04-23T17:30:17.563Z,1.15
2023-04-23T17:33:06.274Z,1.25
2023-04-23T17:35:56.400Z,1.58
2023-04-23T17:38:45.007Z,1.40
2023-04-23T17:41:33.899Z,1.48
2023-04-23T17:44:22.516Z,1.25
2023-04-23T17:47:13.296Z,1.92
2023-04-23T17:50:02.263Z,1.90
2023-04-23T17:52:52.944Z,1.55
2023-04-23T17:55:41.596Z,1.25
2023-04-23T17:58:30.643Z,1.17
2023-04-23T18:01:19.357Z,1.05
2023-04-23T18:04:08.611Z,1.23
2023-04-23T18:06:57.477Z,1.30
2023-04-23T18:09:47.567Z,1.40
2023-04-23T18:12:37.030Z,1.38
2023-04-23T18:15:25.894Z,1.48
2023-04-23T18:18:14.603Z,1.52
2023-04-23T18:21:03.240Z,1.50
2023-04-23T18:23:51.819Z,1.50
2023-04-23T18:26:41.714Z,1.17
2023-04-23T18:29:30.265Z,1.73
2023-04-23T18:32:31.384Z,1.70
2023-04-23T18:35:22.836Z,1.67
2023-04-23T18:38:24.182Z,1.80
2023-04-23T18:41:12.708Z,1.60
2023-04-23T18:44:02.839Z,1.77
2023-04-23T18:46:51.930Z,1.80
2023-04-23T18:49:47.476Z,1.70
2023-04-23T18:52:36.321Z,1.60
2023-04-23T18:55:25.034Z,1.65
2023-04-23T18:59:52.021Z,1.50
2023-04-23T19:32:24.749Z,1.90
2023-04-23T19:38:45.840Z,1.45
2023-04-23T19:41:34.752Z,1.20
2023-04-23T19:44:59.575Z,1.17
2023-04-23T19:48:12.795Z,1.63
2023-04-23T19:51:16.131Z,1.20
2023-04-23T20:01:14.635Z,1.00
2023-04-23T20:04:43.608Z,1.30
2023-04-23T20:08:11.623Z,1.13
2023-04-23T20:11:43.597Z,1.30
2023-04-23T20:29:56.545Z,1.30
2023-04-23T20:32:51.378Z,1.08
2023-04-23T20:35:45.015Z,1.17
2023-04-23T20:38:40.310Z,0.93
2023-04-23T20:41:56.297Z,1.30
2023-04-23T20:46:20.398Z,1.13
2023-04-23T20:49:43.809Z,1.10
2023-04-23T20:52:38.235Z,1.17
2023-04-23T20:55:29.174Z,1.35
2023-04-23T20:58:30.914Z,1.10
2023-04-23T21:01:45.125Z,1.05
2023-04-23T21:04:42.805Z,1.30
2023-04-23T21:07:40.032Z,0.98
2023-04-23T21:10:28.954Z,0.80
2023-04-23T21:13:27.282Z,1.00
2023-04-23T21:16:16.878Z,0.70
2023-04-23T21:19:10.060Z,0.90
2023-04-23T21:22:01.732Z,1.20
2023-04-23T21:24:56.460Z,0.73
2023-04-23T21:27:50.529Z,1.10
2023-04-23T21:30:52.715Z,0.77
2023-04-23T21:33:46.209Z,0.73
2023-04-23T21:37:22.219Z,0.90
2023-04-23T21:40:26.512Z,0.70
2023-04-23T21:43:35.640Z,0.90
2023-04-23T21:46:30.463Z,0.88
2023-04-23T21:49:44.506Z,1.00
2023-04-23T21:52:51.298Z,0.80
2023-04-23T21:55:56.963Z,0.80
2023-04-23T21:58:52.626Z,0.70
2023-04-23T22:01:41.801Z,0.70
2023-04-23T22:04:31.979Z,0.80
2023-04-23T22:07:24.209Z,0.60
2023-04-23T22:10:17.937Z,0.80
2023-04-23T22:13:07.742Z,0.70
2023-04-23T22:15:57.408Z,0.63
2023-04-23T22:18:45.939Z,0.73
2023-04-23T22:21:34.502Z,0.60
2023-04-23T22:24:23.763Z,0.50
2023-04-23T22:27:14.082Z,0.60
2023-04-23T22:30:02.880Z,0.70
2023-04-23T22:32:51.471Z,0.47
2023-04-23T22:35:40.834Z,0.60
2023-04-23T22:38:29.330Z,0.50
2023-04-23T22:41:17.873Z,0.70
2023-04-23T22:44:08.269Z,0.47
2023-04-23T22:46:57.598Z,0.57
2023-04-23T22:49:51.125Z,0.70
2023-04-23T22:52:40.673Z,0.60
2023-04-23T22:55:29.635Z,0.80
2023-04-23T22:58:19.027Z,0.40
2023-04-23T23:01:15.395Z,0.68
2023-04-23T23:04:07.534Z,0.70
2023-04-23T23:06:56.718Z,0.50
2023-04-23T23:09:45.815Z,0.70
2023-04-23T23:12:39.299Z,1.05
2023-04-23T23:15:28.316Z,0.77
2023-04-23T23:18:18.813Z,0.80
2023-04-23T23:21:07.739Z,0.80
2023-04-23T23:23:59.619Z,0.90
2023-04-23T23:26:54.512Z,0.90
2023-04-23T23:29:43.866Z,0.75
2023-04-23T23:32:33.109Z,1.00
2023-04-23T23:35:23.011Z,0.80
2023-04-23T23:38:11.820Z,0.90
2023-04-23T23:41:00.240Z,1.10
2023-04-23T23:43:48.742Z,0.80
2023-04-23T23:46:38.950Z,0.88
2023-04-23T23:49:29.806Z,0.80
2023-04-23T23:52:22.078Z,0.90
2023-04-23T23:55:15.972Z,0.52
2023-04-23T23:58:08.337Z,0.60
